createdAt,value
2019-03-12T00:01:48.188Z,95348.77
2019-03-12T00:04:14.542Z,95344.03
2019-03-12T00:06:42.711Z,95337.67
2019-03-12T00:09:09.049Z,95336.23
2019-03-12T00:11:35.353Z,95340.30
2019-03-12T00:14:03.513Z,95332.34
2019-03-12T00:16:29.879Z,95342.34
2019-03-12T00:18:56.119Z,95342.86
2019-03-12T00:21:22.496Z,95345.66
2019-03-12T00:23:48.642Z,95349.90
2019-03-12T00:26:15.032Z,95344.36
2019-03-12T00:28:41.298Z,95349.78
2019-03-12T00:31:07.652Z,95359.12
2019-03-12T00:33:33.929Z,95358.47
2019-03-12T00:36:00.295Z,95352.77
2019-03-12T00:38:26.609Z,95356.39
2019-03-12T00:40:52.863Z,95349.69
2019-03-12T00:43:21.940Z,95350.99
2019-03-12T00:45:48.232Z,95360.24
2019-03-12T00:48:14.669Z,95359.49
2019-03-12T00:50:40.950Z,95360.63
2019-03-12T00:53:07.254Z,95360.15
2019-03-12T00:55:33.459Z,95364.93
2019-03-12T00:58:01.515Z,95362.62
2019-03-12T01:00:27.804Z,95356.70
2019-03-12T01:02:54.025Z,95365.72
2019-03-12T01:05:20.338Z,95365.23
2019-03-12T01:07:46.644Z,95365.36
2019-03-12T01:10:16.184Z,95368.98
2019-03-12T01:12:42.495Z,95371.61
2019-03-12T01:15:11.161Z,95373.26
2019-03-12T01:17:37.416Z,95376.34
2019-03-12T01:20:06.918Z,95382.70
2019-03-12T01:22:33.187Z,95385.32
2019-03-12T01:24:59.362Z,95387.45
2019-03-12T01:27:25.570Z,95388.41
2019-03-12T01:29:51.844Z,95390.72
2019-03-12T01:32:18.146Z,95394.81
2019-03-12T01:34:44.504Z,95383.84
2019-03-12T01:37:10.796Z,95394.63
2019-03-12T01:39:37.136Z,95393.62
2019-03-12T01:42:03.454Z,95394.59
2019-03-12T01:44:29.755Z,95395.91
2019-03-12T01:46:59.007Z,95393.59
2019-03-12T01:49:25.134Z,95396.84
2019-03-12T01:51:51.489Z,95400.41
2019-03-12T01:54:17.805Z,95395.71
2019-03-12T01:56:44.142Z,95399.16
2019-03-12T01:59:10.452Z,95410.97
2019-03-12T02:01:36.763Z,95411.63
2019-03-12T02:04:04.470Z,95417.20
2019-03-12T02:06:30.724Z,95415.89
2019-03-12T02:08:56.977Z,95421.73
2019-03-12T02:11:23.278Z,95425.12
2019-03-12T02:13:49.491Z,95427.87
2019-03-12T02:16:17.453Z,95434.74
2019-03-12T02:18:43.804Z,95437.01
2019-03-12T02:21:10.018Z,95433.22
2019-03-12T02:23:36.293Z,95438.27
2019-03-12T02:26:02.669Z,95437.14
2019-03-12T02:28:28.889Z,95448.77
2019-03-12T02:30:55.204Z,95458.10
2019-03-12T02:33:24.480Z,95452.56
2019-03-12T02:35:50.598Z,95453.70
2019-03-12T02:38:17.018Z,95457.31
2019-03-12T02:40:43.314Z,95460.23
2019-03-12T02:43:09.564Z,95458.63
2019-03-12T02:45:35.866Z,95467.11
2019-03-12T02:48:02.208Z,95462.02
2019-03-12T02:50:28.397Z,95466.25
2019-03-12T02:52:54.665Z,95471.07
2019-03-12T02:55:20.940Z,95471.58
2019-03-12T02:57:47.134Z,95475.81
2019-03-12T03:00:18.931Z,95469.28
2019-03-12T03:02:45.185Z,95471.69
2019-03-12T03:05:11.238Z,95472.03
2019-03-12T03:07:39.349Z,95481.35
2019-03-12T03:10:07.235Z,95485.13
2019-03-12T03:12:33.550Z,95493.45
2019-03-12T03:15:03.961Z,95498.68
2019-03-12T03:17:33.196Z,95498.98
2019-03-12T03:19:59.320Z,95505.18
2019-03-12T03:22:25.667Z,95510.95
2019-03-12T03:24:51.932Z,95503.59
2019-03-12T03:27:18.170Z,95513.08
2019-03-12T03:29:44.468Z,95510.30
2019-03-12T03:32:15.461Z,95516.97
2019-03-12T03:34:41.639Z,95519.24
2019-03-12T03:37:07.902Z,95519.41
2019-03-12T03:39:34.158Z,95527.25
2019-03-12T03:42:00.440Z,95535.41
2019-03-12T03:44:26.720Z,95531.48
2019-03-12T03:46:52.934Z,95548.62
2019-03-12T03:49:19.279Z,95547.31
2019-03-12T03:51:45.673Z,95549.10
2019-03-12T03:54:11.963Z,95557.11
2019-03-12T03:56:38.275Z,95565.94
2019-03-12T03:59:04.616Z,95568.08
2019-03-12T04:01:30.915Z,95571.04
2019-03-12T04:03:57.090Z,95576.91
2019-03-12T04:06:23.333Z,95584.11
2019-03-12T04:08:49.659Z,95588.01
2019-03-12T04:11:15.943Z,95591.28
2019-03-12T04:13:42.251Z,95597.32
2019-03-12T04:16:10.338Z,95615.77
2019-03-12T04:18:36.635Z,95617.42
2019-03-12T04:21:02.946Z,95622.62
2019-03-12T04:23:29.142Z,95627.86
2019-03-12T04:25:55.525Z,95634.06
2019-03-12T04:28:21.815Z,95639.14
2019-03-12T04:30:48.109Z,95638.49
2019-03-12T04:33:42.167Z,95630.65
2019-03-12T04:36:11.545Z,95636.84
2019-03-12T04:38:41.841Z,95645.67
2019-03-12T04:41:08.153Z,95654.64
2019-03-12T04:43:34.352Z,95643.20
2019-03-12T04:46:00.714Z,95651.05
2019-03-12T04:48:26.892Z,95648.28
2019-03-12T04:50:53.259Z,95653.51
2019-03-12T04:53:19.545Z,95657.74
2019-03-12T04:55:45.850Z,95659.53
2019-03-12T04:58:12.151Z,95657.27
2019-03-12T05:00:40.274Z,95659.70
2019-03-12T05:03:06.578Z,95661.83
2019-03-12T05:05:32.872Z,95671.30
2019-03-12T05:07:59.151Z,95680.78
2019-03-12T05:10:25.361Z,95678.98
2019-03-12T05:12:53.502Z,95686.47
2019-03-12T05:15:19.792Z,95681.75
2019-03-12T05:17:46.119Z,95693.69
2019-03-12T05:20:14.416Z,95696.30
2019-03-12T05:22:40.748Z,95699.08
2019-03-12T05:25:13.204Z,95699.73
2019-03-12T05:27:39.550Z,95705.94
2019-03-12T05:30:16.780Z,95713.44
2019-03-12T05:32:43.090Z,95713.30
2019-03-12T05:35:09.422Z,95716.71
2019-03-12T05:37:35.818Z,95723.24
2019-03-12T05:40:03.529Z,95722.59
2019-03-12T05:42:29.876Z,95725.86
2019-03-12T05:44:56.167Z,95730.92
2019-03-12T05:47:22.480Z,95735.80
2019-03-12T05:49:48.772Z,95736.30
2019-03-12T05:52:15.097Z,95739.91
2019-03-12T05:54:41.393Z,95733.39
2019-03-12T05:57:07.701Z,95735.50
2019-03-12T05:59:34.041Z,95739.08
2019-03-12T06:02:00.348Z,95742.02
2019-03-12T06:04:26.621Z,95744.63
2019-03-12T06:06:52.906Z,95745.94
2019-03-12T06:09:29.700Z,95748.91
2019-03-12T06:11:47.471Z,95755.25
2019-03-12T06:14:15.062Z,95763.09
2019-03-12T06:16:41.307Z,95762.27
2019-03-12T06:19:07.544Z,95770.30
2019-03-12T06:21:33.810Z,95778.15
2019-03-12T06:24:07.204Z,95778.64
2019-03-12T06:26:33.461Z,95785.17
2019-03-12T06:28:59.712Z,95788.30
2019-03-12T06:31:27.711Z,95792.05
2019-03-12T06:33:55.652Z,95784.02
2019-03-12T06:36:24.700Z,95795.40
2019-03-12T06:38:58.380Z,95792.13
2019-03-12T06:41:32.294Z,95796.39
2019-03-12T06:44:21.921Z,95798.72
2019-03-12T06:47:05.430Z,95788.27
2019-03-12T06:49:33.550Z,95785.00
2019-03-12T06:52:01.611Z,95779.46
2019-03-12T06:54:44.669Z,95785.50
2019-03-12T06:59:55.792Z,95798.44
2019-03-12T07:02:23.893Z,95805.47
2019-03-12T07:05:29.846Z,95802.52
2019-03-12T07:10:52.553Z,95815.10
2019-03-12T07:13:20.765Z,95814.77
2019-03-12T07:15:53.781Z,95820.65
2019-03-12T07:21:50.529Z,95836.33
2019-03-12T07:24:30.478Z,95833.36
2019-03-12T07:28:00.236Z,95834.84
2019-03-12T07:30:13.463Z,95836.16
2019-03-12T07:32:44.178Z,95821.93
2019-03-12T07:35:14.808Z,95824.72
2019-03-12T07:37:42.933Z,95818.02
2019-03-12T07:40:27.601Z,95819.83
2019-03-12T07:43:01.872Z,95819.69
2019-03-12T07:45:42.219Z,95822.10
2019-03-12T07:48:25.383Z,95833.22
2019-03-12T07:50:56.520Z,95844.84
2019-03-12T07:53:27.528Z,95840.22
2019-03-12T07:56:00.573Z,95853.61
2019-03-12T07:58:36.074Z,95843.66
2019-03-12T08:01:10.706Z,95850.34
2019-03-12T08:03:47.939Z,95838.63
2019-03-12T08:06:18.682Z,95844.34
2019-03-12T08:08:55.502Z,95843.53
2019-03-12T08:11:43.260Z,95853.99
2019-03-12T08:14:29.650Z,95855.31
2019-03-12T08:17:03.584Z,95849.78
2019-03-12T08:19:37.936Z,95859.56
2019-03-12T08:22:06.039Z,95881.81
2019-03-12T08:24:36.842Z,95876.23
2019-03-12T08:27:04.999Z,95880.16
2019-03-12T08:29:32.933Z,95871.64
2019-03-12T08:32:00.898Z,95875.56
2019-03-12T08:34:37.734Z,95870.95
2019-03-12T08:37:07.312Z,95868.84
2019-03-12T08:39:53.734Z,95878.00
2019-03-12T08:42:33.877Z,95873.29
2019-03-12T08:45:02.420Z,95872.30
2019-03-12T08:47:39.142Z,95885.23
2019-03-12T08:50:18.496Z,95888.13
2019-03-12T08:52:55.625Z,95887.34
2019-03-12T08:55:26.291Z,95879.86
2019-03-12T08:57:55.489Z,95907.15
2019-03-12T09:00:35.615Z,95884.73
2019-03-12T09:03:20.407Z,95892.09
2019-03-12T09:05:57.255Z,95891.77
2019-03-12T09:08:25.311Z,95892.27
2019-03-12T09:11:05.301Z,95884.39
2019-03-12T09:13:35.886Z,95883.73
2019-03-12T09:16:03.906Z,95896.86
2019-03-12T09:18:45.068Z,95900.77
2019-03-12T09:21:13.209Z,95902.75
2019-03-12T09:23:46.884Z,95897.84
2019-03-12T09:26:16.252Z,95896.22
2019-03-12T09:28:49.813Z,95903.09
2019-03-12T09:31:32.808Z,95917.14
2019-03-12T09:34:00.777Z,95906.67
2019-03-12T09:36:31.678Z,95905.54
2019-03-12T09:39:16.247Z,95905.67
2019-03-12T09:41:59.502Z,95904.05
2019-03-12T09:44:30.560Z,95903.72
2019-03-12T09:46:58.658Z,95933.83
2019-03-12T09:49:38.842Z,95914.38
2019-03-12T09:52:09.458Z,95924.69
2019-03-12T09:54:37.549Z,95912.56
2019-03-12T09:57:05.568Z,95930.42
2019-03-12T09:59:33.737Z,95914.72
2019-03-12T10:02:06.667Z,95955.44
2019-03-12T10:04:34.658Z,95946.62
2019-03-12T10:07:20.622Z,95941.20
2019-03-12T10:10:03.613Z,95933.20
2019-03-12T10:12:48.718Z,95933.19
2019-03-12T10:15:33.983Z,95938.94
2019-03-12T10:18:02.816Z,95934.53
2019-03-12T10:20:48.781Z,95951.21
2019-03-12T10:23:19.727Z,95937.64
2019-03-12T10:26:04.497Z,95963.97
2019-03-12T10:28:35.407Z,95961.35
2019-03-12T10:31:03.250Z,95955.13
2019-03-12T10:33:31.300Z,95949.91
2019-03-12T10:35:59.486Z,95958.44
2019-03-12T10:39:08.167Z,95946.31
2019-03-12T10:41:38.756Z,95951.23
2019-03-12T10:44:06.671Z,95947.64
2019-03-12T10:46:37.271Z,95949.92
2019-03-12T10:49:04.062Z,95945.98
2019-03-12T10:51:30.416Z,95946.80
2019-03-12T10:53:56.689Z,95956.97
2019-03-12T10:56:22.719Z,95957.77
2019-03-12T10:58:48.901Z,95944.67
2019-03-12T11:01:15.024Z,95946.30
2019-03-12T11:03:41.302Z,95944.02
2019-03-12T11:06:07.567Z,95944.67
2019-03-12T11:08:37.571Z,95964.31
2019-03-12T11:11:04.129Z,95949.88
2019-03-12T11:13:30.354Z,95957.56
2019-03-12T11:15:56.635Z,95956.42
2019-03-12T11:18:22.917Z,95956.77
2019-03-12T11:20:49.223Z,95964.62
2019-03-12T11:23:15.555Z,95966.25
2019-03-12T11:25:49.347Z,95963.61
2019-03-12T11:28:15.534Z,95963.13
2019-03-12T11:30:41.716Z,95950.50
2019-03-12T11:33:10.450Z,95965.72
2019-03-12T11:35:39.097Z,95948.85
2019-03-12T11:38:04.675Z,95955.06
2019-03-12T11:40:32.542Z,95949.99
2019-03-12T11:42:59.087Z,95972.59
2019-03-12T11:45:35.850Z,95968.14
2019-03-12T11:47:53.565Z,95952.78
2019-03-12T11:50:24.909Z,95948.85
2019-03-12T11:52:55.735Z,95951.16
2019-03-12T11:55:19.540Z,95943.30
2019-03-12T11:57:45.930Z,95959.51
2019-03-12T12:00:24.667Z,95958.69
2019-03-12T12:02:59.924Z,95952.27
2019-03-12T12:05:19.075Z,95956.97
2019-03-12T12:07:45.307Z,95962.88
2019-03-12T12:10:14.065Z,95949.45
2019-03-12T12:12:40.430Z,95947.30
2019-03-12T12:15:09.852Z,95946.61
2019-03-12T12:17:36.038Z,95949.37
2019-03-12T12:20:03.429Z,95948.88
2019-03-12T12:22:31.144Z,95957.09
2019-03-12T12:24:57.483Z,95968.73
2019-03-12T12:27:23.781Z,95960.25
2019-03-12T12:29:50.058Z,95968.45
2019-03-12T12:32:16.301Z,95963.76
2019-03-12T12:34:42.570Z,95953.13
2019-03-12T12:37:08.795Z,95967.52
2019-03-12T12:39:35.048Z,95964.55
2019-03-12T12:42:01.332Z,95948.13
2019-03-12T12:44:27.614Z,95940.75
2019-03-12T12:46:54.015Z,95940.09
2019-03-12T12:49:20.424Z,95940.89
2019-03-12T12:51:46.737Z,95949.36
2019-03-12T12:54:13.048Z,95943.42
2019-03-12T12:56:39.373Z,95938.46
2019-03-12T12:59:05.681Z,95932.31
2019-03-12T13:01:31.829Z,95933.31
2019-03-12T13:03:58.174Z,95938.73
2019-03-12T13:06:24.442Z,95938.17
2019-03-12T13:08:50.784Z,95940.96
2019-03-12T13:11:17.095Z,95958.81
2019-03-12T13:13:43.483Z,95948.84
2019-03-12T13:16:09.675Z,95943.77
2019-03-12T13:18:38.240Z,95955.52
2019-03-12T13:21:04.501Z,95936.44
2019-03-12T13:23:30.596Z,95931.56
2019-03-12T13:25:56.883Z,95933.40
2019-03-12T13:28:23.195Z,95934.41
2019-03-12T13:30:49.451Z,95947.41
2019-03-12T13:33:15.779Z,95943.16
2019-03-12T13:35:42.132Z,95949.05
2019-03-12T13:38:08.297Z,95959.03
2019-03-12T13:40:34.591Z,95963.92
2019-03-12T13:43:00.902Z,95965.23
2019-03-12T13:45:30.036Z,95957.97
2019-03-12T13:47:56.629Z,95966.14
2019-03-12T13:50:23.200Z,95962.78
2019-03-12T13:52:49.440Z,95968.34
2019-03-12T13:55:16.571Z,95957.06
2019-03-12T13:57:43.118Z,95962.44
2019-03-12T14:00:40.147Z,95970.95
2019-03-12T14:03:06.438Z,95973.93
2019-03-12T14:05:32.803Z,95979.27
2019-03-12T14:08:29.048Z,95976.86
2019-03-12T14:26:04.781Z,95978.00
2019-03-12T14:28:30.932Z,95984.90
2019-03-12T14:30:57.266Z,95979.83
2019-03-12T14:33:23.536Z,95976.71
2019-03-12T14:35:51.704Z,95960.84
2019-03-12T14:38:18.081Z,95963.61
2019-03-12T14:40:44.288Z,95968.22
2019-03-12T14:43:10.638Z,95965.28
2019-03-12T14:45:38.532Z,95972.78
2019-03-12T14:48:04.692Z,95960.65
2019-03-12T14:50:32.179Z,95961.63
2019-03-12T14:53:21.726Z,95967.83
2019-03-12T14:55:44.228Z,95965.35
2019-03-12T14:58:10.440Z,95956.97
2019-03-12T15:00:36.727Z,95952.34
2019-03-12T15:03:03.049Z,95949.67
2019-03-12T15:05:29.293Z,95947.13
2019-03-12T15:07:55.661Z,95946.00
2019-03-12T15:10:21.954Z,95946.86
2019-03-12T15:12:48.227Z,95951.79
2019-03-12T15:15:14.543Z,95954.55
2019-03-12T15:17:40.734Z,95947.83
2019-03-12T15:20:12.033Z,95949.28
2019-03-12T15:22:38.286Z,95948.79
2019-03-12T15:25:12.075Z,95935.98
2019-03-12T15:27:38.232Z,95943.41
2019-03-12T15:30:23.450Z,95937.55
2019-03-12T15:32:51.277Z,95938.65
2019-03-12T15:35:17.560Z,95941.92
2019-03-12T15:37:43.903Z,95944.38
2019-03-12T15:40:11.364Z,95936.20
2019-03-12T15:42:37.728Z,95936.68
2019-03-12T15:45:09.693Z,95945.03
2019-03-12T15:47:38.806Z,95940.30
2019-03-12T15:50:12.952Z,95934.09
2019-03-12T15:52:35.410Z,95938.02
2019-03-12T15:55:01.681Z,95921.02
2019-03-12T15:57:27.776Z,95933.47
2019-03-12T15:59:54.065Z,95939.20
2019-03-12T16:02:20.252Z,95939.08
2019-03-12T16:04:48.355Z,95932.84
2019-03-12T16:07:14.603Z,95933.33
2019-03-12T16:09:44.311Z,95950.53
2019-03-12T16:15:26.939Z,95938.08
2019-03-12T16:18:30.963Z,95947.42
2019-03-12T16:20:36.679Z,95936.47
2019-03-12T16:23:04.881Z,95933.05
2019-03-12T16:25:31.147Z,95926.64
2019-03-12T16:27:57.461Z,95930.23
2019-03-12T16:30:23.749Z,95935.81
2019-03-12T16:32:50.189Z,95921.41
2019-03-12T16:35:16.429Z,95932.23
2019-03-12T16:37:42.707Z,95934.02
2019-03-12T16:43:03.236Z,95941.38
2019-03-12T16:45:29.634Z,95935.14
2019-03-12T16:47:55.920Z,95938.42
2019-03-12T16:50:24.399Z,95937.59
2019-03-12T16:52:50.723Z,95943.97
2019-03-12T16:55:17.731Z,95943.17
2019-03-12T16:57:44.015Z,95943.83
2019-03-12T17:00:11.576Z,95937.78
2019-03-12T17:02:37.852Z,95942.70
2019-03-12T17:05:05.799Z,95938.14
2019-03-12T17:07:36.492Z,95938.12
2019-03-12T17:10:05.302Z,95937.14
2019-03-12T17:12:31.610Z,95943.86
2019-03-12T17:14:57.986Z,95941.08
2019-03-12T17:17:24.173Z,95950.89
2019-03-12T17:19:50.400Z,95946.30
2019-03-12T17:22:17.231Z,95946.97
2019-03-12T17:24:43.573Z,95947.44
2019-03-12T17:27:09.750Z,95949.88
2019-03-12T17:29:36.215Z,95956.09
2019-03-12T17:32:02.156Z,95936.44
2019-03-12T17:34:35.850Z,95954.93
2019-03-12T17:36:55.975Z,95956.40
2019-03-12T17:39:22.152Z,95944.95
2019-03-12T17:41:48.075Z,95948.86
2019-03-12T17:44:14.316Z,95947.05
2019-03-12T17:46:40.472Z,95948.37
2019-03-12T17:49:06.767Z,95949.34
2019-03-12T17:51:32.945Z,95946.03
2019-03-12T17:53:59.183Z,95954.69
2019-03-12T17:56:25.681Z,95953.55
2019-03-12T17:58:53.695Z,95956.45
2019-03-12T18:01:29.339Z,95957.26
2019-03-12T18:03:50.007Z,95958.03
2019-03-12T18:06:16.742Z,95955.55
2019-03-12T18:08:42.946Z,95965.02
2019-03-12T18:11:09.088Z,95956.32
2019-03-12T18:13:35.239Z,95955.02
2019-03-12T18:16:01.176Z,95962.34
2019-03-12T18:18:27.211Z,95961.00
2019-03-12T18:20:53.501Z,95963.94
2019-03-12T18:23:19.518Z,95961.29
2019-03-12T18:25:47.480Z,95957.84
2019-03-12T18:28:13.716Z,95953.70
2019-03-12T18:30:39.902Z,95948.11
2019-03-12T18:33:06.153Z,95950.41
2019-03-12T18:35:32.492Z,95944.67
2019-03-12T18:37:58.601Z,95942.50
2019-03-12T18:40:26.049Z,95941.86
2019-03-12T18:42:53.775Z,95943.60
2019-03-12T18:45:42.739Z,95944.55
2019-03-12T18:48:09.016Z,95945.34
2019-03-12T18:50:36.169Z,95945.97
2019-03-12T18:53:02.242Z,95947.59
2019-03-12T18:55:31.978Z,95945.09
2019-03-12T18:57:58.065Z,95939.67
2019-03-12T19:00:24.223Z,95935.43
2019-03-12T19:02:50.353Z,95936.06
2019-03-12T19:05:16.725Z,95929.84
2019-03-12T19:07:45.411Z,95927.55
2019-03-12T19:10:13.181Z,95934.66
2019-03-12T19:12:55.737Z,95928.12
2019-03-12T19:15:20.042Z,95929.70
2019-03-12T19:20:58.187Z,95927.14
2019-03-12T19:23:24.721Z,95930.02
2019-03-12T19:25:52.836Z,95936.63
2019-03-12T19:28:19.259Z,95932.03
2019-03-12T19:30:45.793Z,95937.87
2019-03-12T19:33:17.260Z,95939.99
2019-03-12T19:35:44.650Z,95936.20
2019-03-12T19:38:10.760Z,95936.03
2019-03-12T19:40:41.806Z,95936.33
2019-03-12T19:43:07.931Z,95941.02
2019-03-12T19:45:33.883Z,95936.73
2019-03-12T19:47:59.814Z,95940.27
2019-03-12T19:50:25.855Z,95948.03
2019-03-12T19:52:51.906Z,95940.84
2019-03-12T19:55:33.168Z,95950.73
2019-03-12T19:57:59.306Z,95942.69
2019-03-12T20:00:26.352Z,95932.20
2019-03-12T20:02:52.871Z,95934.78
2019-03-12T20:05:18.918Z,95928.56
2019-03-12T20:07:45.037Z,95930.81
2019-03-12T20:10:31.854Z,95923.83
2019-03-12T20:13:21.519Z,95918.92
2019-03-12T20:16:12.719Z,95920.37
2019-03-12T20:18:45.285Z,95919.92
2019-03-12T20:21:36.502Z,95921.47
2019-03-12T20:24:15.182Z,95915.40
2019-03-12T20:27:00.153Z,95916.97
2019-03-12T20:29:29.921Z,95909.13
2019-03-12T20:32:33.539Z,95900.83
2019-03-12T20:35:30.153Z,95908.05
2019-03-12T20:38:25.989Z,95902.31
2019-03-12T20:41:15.408Z,95892.48
2019-03-12T20:44:05.076Z,95887.66
2019-03-12T20:46:57.832Z,95888.03
2019-03-12T20:49:54.952Z,95897.02
2019-03-12T20:52:41.612Z,95882.81
2019-03-12T20:55:37.051Z,95891.41
2019-03-12T20:58:35.803Z,95883.97
2019-03-12T21:01:27.954Z,95877.36
2019-03-12T21:04:17.106Z,95878.66
2019-03-12T21:07:02.519Z,95874.17
2019-03-12T21:09:48.543Z,95861.48
2019-03-12T21:12:18.346Z,95859.80
2019-03-12T21:14:50.879Z,95861.83
2019-03-12T21:17:35.693Z,95856.52
2019-03-12T21:20:28.603Z,95851.31
2019-03-12T21:23:32.323Z,95844.52
2019-03-12T21:26:23.642Z,95841.38
2019-03-12T21:28:56.122Z,95844.06
2019-03-12T21:31:22.167Z,95842.91
2019-03-12T21:33:52.653Z,95841.61
2019-03-12T21:36:18.695Z,95828.68
2019-03-12T21:38:44.757Z,95829.26
2019-03-12T21:41:10.816Z,95820.95
2019-03-12T21:43:36.900Z,95811.81
2019-03-12T21:46:03.182Z,95804.05
2019-03-12T21:48:29.125Z,95809.69
2019-03-12T21:50:55.274Z,95805.25
2019-03-12T21:53:21.347Z,95806.76
2019-03-12T21:55:47.438Z,95799.68
2019-03-12T21:58:17.851Z,95804.05
2019-03-12T22:00:43.987Z,95791.30
2019-03-12T22:03:10.007Z,95793.71
2019-03-12T22:05:36.174Z,95793.39
2019-03-12T22:08:02.137Z,95807.63
2019-03-12T22:10:28.211Z,95798.52
2019-03-12T22:12:54.280Z,95796.25
2019-03-12T22:15:20.323Z,95793.14
2019-03-12T22:17:46.272Z,95788.49
2019-03-12T22:20:13.222Z,95786.65
2019-03-12T22:22:41.148Z,95784.41
2019-03-12T22:25:11.440Z,95779.72
2019-03-12T22:27:37.343Z,95778.52
2019-03-12T22:30:07.279Z,95779.14
2019-03-12T22:32:33.200Z,95778.17
2019-03-12T22:34:59.230Z,95766.98
2019-03-12T22:37:25.292Z,95773.08
2019-03-12T22:39:51.231Z,95770.77
2019-03-12T22:42:17.193Z,95756.48
2019-03-12T22:44:43.232Z,95750.95
2019-03-12T22:47:09.154Z,95749.25
2019-03-12T22:49:35.088Z,95741.39
2019-03-12T22:52:01.145Z,95746.98
2019-03-12T22:54:27.159Z,95741.00
2019-03-12T22:56:54.762Z,95733.88
2019-03-12T22:59:20.718Z,95730.85
2019-03-12T23:01:46.769Z,95732.22
2019-03-12T23:04:12.964Z,95721.91
2019-03-12T23:06:39.023Z,95712.05
2019-03-12T23:09:05.272Z,95708.27
2019-03-12T23:11:35.940Z,95707.72
2019-03-12T23:13:59.354Z,95698.62
2019-03-12T23:16:25.309Z,95694.12
2019-03-12T23:18:53.673Z,95685.97
2019-03-12T23:21:19.675Z,95692.06
2019-03-12T23:23:45.765Z,95686.48
2019-03-12T23:26:13.133Z,95688.13
2019-03-12T23:28:39.118Z,95682.65
2019-03-12T23:31:05.099Z,95677.59
2019-03-12T23:33:31.179Z,95684.85
2019-03-12T23:35:57.133Z,95681.17
2019-03-12T23:38:23.117Z,95681.46
2019-03-12T23:40:49.177Z,95675.15
2019-03-12T23:43:15.241Z,95672.27
2019-03-12T23:45:41.327Z,95678.28
2019-03-12T23:48:07.398Z,95673.09
2019-03-12T23:50:33.369Z,95675.00
2019-03-12T23:52:59.327Z,95663.06
2019-03-12T23:55:25.642Z,95663.42
2019-03-12T23:57:51.642Z,95675.44
